Time;durP1;ratioP1;P1;durP2;ratioP2;P2;SDS_P1;SDS_P2;PMS_P1;PMS_P2;Temp;Humidity;BMP_temperature;BMP_pressure;BME280_temperature;BME280_humidity;BME280_pressure;Samples;Min_cycle;Max_cycle;Signal;HPM_P1;HPM_P2
2021/08/02 00:01:13;;;;;;;6.70;6.10;;;21.40;99.90;;;21.71;56.69;100816.50;4938417;28;97217;-46
2021/08/02 00:03:51;;;;;;;8.13;7.00;;;21.30;99.90;;;21.68;56.87;100807.69;4931981;28;99025;-48
2021/08/02 00:06:23;;;;;;;6.97;6.27;;;21.30;99.90;;;21.67;56.66;100811.34;4919648;28;98666;-44
2021/08/02 00:09:17;;;;;;;8.33;6.80;;;21.30;99.90;;;21.66;56.81;100814.16;4939813;28;97285;-45
2021/08/02 00:11:59;;;;;;;7.43;6.73;;;21.20;99.90;;;21.66;56.93;100815.00;4905303;28;100220;-46
2021/08/02 00:14:26;;;;;;;8.03;7.23;;;21.30;99.90;;;21.62;56.96;100818.94;4909678;28;98076;-46
2021/08/02 00:16:53;;;;;;;7.33;6.63;;;21.20;99.90;;;21.57;57.04;100810.41;4942626;28;98006;-49
2021/08/02 00:19:20;;;;;;;9.27;6.50;;;21.20;99.90;;;21.58;57.13;100809.41;4928277;28;103803;-47
2021/08/02 00:21:47;;;;;;;7.77;6.97;;;21.20;99.90;;;21.60;56.98;100815.50;4928614;28;98594;-45
2021/08/02 00:24:15;;;;;;;8.47;7.70;;;21.10;99.90;;;21.65;57.02;100807.94;4936978;28;97690;-45
2021/08/02 00:26:42;;;;;;;7.67;6.97;;;21.30;99.90;;;21.62;56.93;100813.56;4944080;28;97886;-45
2021/08/02 00:29:08;;;;;;;12.23;7.10;;;21.30;99.90;;;21.67;57.03;100816.72;4907293;28;98138;-47
2021/08/02 00:31:36;;;;;;;8.83;7.40;;;21.30;99.90;;;21.72;56.68;100818.22;4929431;28;97760;-47
2021/08/02 00:34:03;;;;;;;10.40;7.90;;;21.40;99.90;;;21.75;56.70;100817.97;4920932;28;96907;-47
2021/08/02 00:36:55;;;;;;;7.87;7.17;;;21.40;99.90;;;21.75;56.49;100824.19;4943445;28;97355;-45
2021/08/02 00:39:48;;;;;;;9.33;7.57;;;21.40;99.90;;;21.78;56.51;100823.94;4922336;28;101866;-46
2021/08/02 00:42:37;;;;;;;8.03;7.23;;;21.40;99.90;;;21.75;56.74;100816.13;4935947;28;99527;-46
2021/08/02 00:45:20;;;;;;;8.47;7.40;;;21.40;99.90;;;21.64;56.73;100816.97;4940163;28;101597;-46
2021/08/02 00:48:09;;;;;;;10.70;7.70;;;21.30;99.90;;;21.65;57.00;100821.38;4928813;28;97656;-45
2021/08/02 00:50:46;;;;;;;8.53;7.23;;;21.20;99.90;;;21.63;57.00;100831.38;4935125;28;102850;-44
2021/08/02 00:53:17;;;;;;;8.53;6.97;;;21.20;99.90;;;21.66;56.94;100831.13;4921770;28;100030;-45
2021/08/02 00:55:48;;;;;;;8.27;7.37;;;21.30;99.90;;;21.67;56.68;100830.16;4930665;28;99194;-45
2021/08/02 00:58:18;;;;;;;12.00;8.00;;;21.30;99.90;;;21.61;57.04;100827.09;4938459;28;97348;-46
2021/08/02 01:00:45;;;;;;;8.47;7.53;;;21.20;99.90;;;21.56;57.29;100830.16;4928172;28;100021;-45
2021/08/02 01:03:13;;;;;;;8.90;8.00;;;21.10;99.90;;;21.55;57.37;100838.31;4942161;28;97549;-48
2021/08/02 01:05:42;;;;;;;8.27;7.17;;;21.10;99.90;;;21.54;57.39;100832.09;4924174;28;97277;-46
2021/08/02 01:08:16;;;;;;;7.93;7.10;;;21.10;99.90;;;21.53;57.36;100833.06;4934902;28;97589;-47
2021/08/02 01:10:49;;;;;;;9.10;7.70;;;21.10;99.90;;;21.50;57.49;100827.94;4930605;28;97092;-47
2021/08/02 01:13:17;;;;;;;10.20;7.33;;;21.00;99.90;;;21.46;57.57;100829.16;4909259;28;100269;-46
2021/08/02 01:15:48;;;;;;;9.20;7.90;;;21.00;99.90;;;21.43;57.73;100829.41;4949272;28;98940;-47
2021/08/02 01:18:19;;;;;;;8.93;7.87;;;21.00;99.90;;;21.41;57.81;100826.00;4934237;28;97966;-47
2021/08/02 01:20:53;;;;;;;9.13;7.73;;;20.90;99.90;;;21.35;58.13;100827.31;4960636;28;97270;-46
2021/08/02 01:23:21;;;;;;;11.93;7.63;;;20.80;99.90;;;21.33;57.71;100828.41;4960849;28;102576;-47
2021/08/02 01:25:56;;;;;;;9.17;7.33;;;20.90;99.90;;;21.40;57.74;100829.63;4945373;28;98759;-47
2021/08/02 01:28:25;;;;;;;7.90;7.20;;;21.00;99.90;;;21.37;57.72;100828.03;4950376;28;98491;-45
2021/08/02 01:30:57;;;;;;;10.97;7.67;;;21.00;99.90;;;21.34;57.77;100830.13;4963296;28;97973;-48
2021/08/02 01:33:29;;;;;;;9.50;7.63;;;20.90;99.90;;;21.35;57.99;100815.72;4948551;28;103737;-45
2021/08/02 01:36:01;;;;;;;8.77;7.87;;;20.90;99.90;;;21.35;58.03;100821.09;4958120;28;98542;-47
2021/08/02 01:38:29;;;;;;;8.63;7.73;;;20.90;99.90;;;21.28;58.30;100819.88;4949188;28;98994;-47
2021/08/02 01:40:55;;;;;;;11.87;8.87;;;20.80;99.90;;;21.22;58.67;100823.00;4959925;28;99240;-47
2021/08/02 01:43:21;;;;;;;9.30;8.07;;;20.70;99.90;;;21.24;58.55;100829.09;4964415;28;96892;-48
2021/08/02 01:46:17;;;;;;;8.23;7.43;;;20.70;99.90;;;21.26;58.36;100832.53;4945916;28;97219;-47
2021/08/02 01:49:14;;;;;;;11.40;8.70;;;20.80;99.90;;;21.26;58.28;100835.22;4948232;28;98542;-49
2021/08/02 01:51:50;;;;;;;9.73;7.60;;;20.80;99.90;;;21.26;58.42;100835.22;4957477;28;102765;-48
2021/08/02 01:54:53;;;;;;;9.50;7.70;;;20.80;99.90;;;21.21;58.64;100834.69;4941386;28;101222;-47
2021/08/02 01:57:34;;;;;;;8.67;7.77;;;20.70;99.90;;;21.21;58.83;100837.38;4943860;28;99081;-47
2021/08/02 02:00:14;;;;;;;9.07;7.80;;;20.70;99.90;;;21.22;58.47;100836.41;4946877;28;97124;-48
2021/08/02 02:03:04;;;;;;;8.47;7.67;;;20.70;99.90;;;21.14;58.85;100833.47;4957246;28;97661;-47
2021/08/02 02:05:44;;;;;;;9.97;7.83;;;20.70;99.90;;;21.01;58.99;100817.47;4944353;28;100152;-48
2021/08/02 02:08:18;;;;;;;8.00;7.20;;;20.60;99.90;;;20.94;59.34;100822.44;4957640;28;97144;-45
2021/08/02 02:11:04;;;;;;;8.63;7.67;;;20.50;99.90;;;20.93;59.21;100825.22;4965207;28;97096;-49
2021/08/02 02:13:39;;;;;;;8.33;7.13;;;20.40;99.90;;;20.83;59.64;100827.78;4944128;28;103968;-46
2021/08/02 02:16:06;;;;;;;10.87;7.80;;;20.40;99.90;;;20.79;59.60;100828.94;4947363;28;97290;-46
2021/08/02 02:18:36;;;;;;;9.77;8.23;;;20.30;99.90;;;20.84;59.96;100828.63;4953335;28;99617;-45
2021/08/02 02:21:04;;;;;;;9.50;7.57;;;20.30;99.90;;;20.88;59.66;100825.59;4943429;28;97577;-48
2021/08/02 02:23:30;;;;;;;10.47;7.60;;;20.40;99.90;;;20.89;59.50;100827.28;4945311;28;97158;-45
2021/08/02 02:25:57;;;;;;;8.93;7.63;;;20.40;99.90;;;20.79;59.53;100834.31;4944945;28;97104;-46
2021/08/02 02:28:24;;;;;;;8.90;7.93;;;20.40;99.90;;;20.82;59.85;100838.59;4944444;28;99645;-48
2021/08/02 02:30:51;;;;;;;10.87;8.43;;;20.30;99.90;;;20.88;59.51;100843.50;4950266;28;96742;-47
2021/08/02 02:33:18;;;;;;;9.50;7.17;;;20.40;99.90;;;20.85;59.56;100839.22;4957950;28;102506;-48
2021/08/02 02:35:49;;;;;;;8.70;7.17;;;20.40;99.90;;;20.93;59.37;100836.81;4935970;28;97533;-47
2021/08/02 02:38:17;;;;;;;9.67;7.87;;;20.40;99.90;;;20.97;59.39;100838.28;4938488;28;97263;-45
2021/08/02 02:40:45;;;;;;;8.43;7.50;;;20.50;99.90;;;20.86;59.27;100835.56;4951299;28;97482;-46
2021/08/02 02:43:15;;;;;;;8.33;7.43;;;20.40;99.90;;;20.83;59.70;100835.81;4955699;28;99669;-46
2021/08/02 02:45:45;;;;;;;9.50;6.87;;;20.40;99.90;;;20.86;59.61;100835.56;4948884;28;108749;-45
2021/08/02 02:48:14;;;;;;;8.93;7.90;;;20.30;99.90;;;20.89;59.50;100840.69;4924674;28;97423;-45
2021/08/02 02:50:45;;;;;;;9.53;8.37;;;20.40;99.90;;;20.94;59.45;100841.19;4953450;28;96732;-46
2021/08/02 02:53:13;;;;;;;8.17;7.40;;;20.50;99.90;;;20.99;59.34;100841.72;4942098;28;97681;-45
2021/08/02 02:55:41;;;;;;;8.57;7.70;;;20.50;99.90;;;21.06;58.96;100845.63;4960731;28;100017;-48
2021/08/02 02:58:06;;;;;;;10.33;8.03;;;20.60;99.90;;;21.07;58.85;100839.28;4956105;28;98690;-45
2021/08/02 03:00:33;;;;;;;11.13;7.30;;;20.60;99.90;;;21.07;58.91;100847.34;4946825;28;97533;-46
2021/08/02 03:03:01;;;;;;;8.33;7.50;;;20.60;99.90;;;21.08;59.13;100854.41;4945904;28;100247;-46
2021/08/02 03:05:28;;;;;;;9.50;7.60;;;20.60;99.90;;;21.08;59.00;100846.38;4944629;28;97391;-45
2021/08/02 03:07:58;;;;;;;8.23;7.30;;;20.60;99.90;;;21.05;58.68;100848.44;4941735;28;97087;-47
2021/08/02 03:10:25;;;;;;;9.87;7.77;;;20.60;99.90;;;20.96;59.04;100846.44;4960097;28;97709;-46
2021/08/02 03:12:52;;;;;;;10.27;7.77;;;20.50;99.90;;;20.89;59.20;100855.94;4945117;28;99229;-48
2021/08/02 03:15:19;;;;;;;9.40;7.37;;;20.40;99.90;;;20.70;60.02;100851.09;4940019;28;99859;-46
2021/08/02 03:17:46;;;;;;;8.77;7.57;;;20.30;99.90;;;20.78;59.77;100854.06;4951661;28;97121;-45
2021/08/02 03:20:14;;;;;;;11.60;7.97;;;20.30;99.90;;;20.67;59.95;100845.94;4939582;28;99200;-45
2021/08/02 03:22:56;;;;;;;7.90;6.80;;;20.20;99.90;;;20.58;60.32;100854.69;4946607;28;98464;-46
2021/08/02 03:25:54;;;;;;;10.00;6.80;;;20.10;99.90;;;20.47;61.28;100860.84;4957913;28;100104;-47
2021/08/02 03:28:30;;;;;;;8.87;7.40;;;20.00;99.90;;;20.36;61.56;100856.22;4960490;28;97426;-45
2021/08/02 03:30:59;;;;;;;10.13;7.73;;;20.00;99.90;;;20.37;61.35;100854.41;4940925;28;96954;-48
2021/08/02 03:33:34;;;;;;;8.13;7.10;;;19.90;99.90;;;20.35;60.88;100851.00;4964022;28;97786;-45
2021/08/02 03:36:05;;;;;;;9.37;7.30;;;19.90;99.90;;;20.32;61.48;100846.72;4945991;28;98007;-47
2021/08/02 03:38:32;;;;;;;9.90;7.87;;;19.90;99.90;;;20.29;61.71;100852.31;4937481;28;97169;-48
2021/08/02 03:40:58;;;;;;;9.87;7.33;;;19.90;99.90;;;20.31;62.09;100849.50;4946363;28;96954;-45
2021/08/02 03:43:25;;;;;;;8.60;7.10;;;19.90;99.90;;;20.29;62.39;100846.09;4936743;28;104791;-45
2021/08/02 03:45:52;;;;;;;8.80;7.90;;;19.80;99.90;;;20.23;62.67;100847.38;4930437;28;99345;-49
2021/08/02 03:48:20;;;;;;;8.83;7.37;;;19.80;99.90;;;20.27;62.81;100854.25;4961798;28;99089;-48
2021/08/02 03:50:46;;;;;;;10.67;7.63;;;19.80;99.90;;;20.24;62.79;100859.81;4964722;28;96997;-45
2021/08/02 03:53:12;;;;;;;9.33;7.57;;;19.80;99.90;;;20.15;62.41;100860.50;4942833;28;98319;-46
2021/08/02 03:55:38;;;;;;;8.70;6.77;;;19.70;99.90;;;20.07;62.93;100869.06;4947224;28;107633;-45
2021/08/02 03:58:07;;;;;;;11.73;7.10;;;19.70;99.90;;;20.02;62.57;100865.88;4951607;28;97040;-51
2021/08/02 04:00:33;;;;;;;8.60;5.87;;;19.60;99.90;;;20.02;61.80;100871.22;4960868;28;96987;-44
2021/08/02 04:02:58;;;;;;;8.30;5.03;;;19.60;99.90;;;19.99;62.17;100875.94;4957483;28;99391;-45
2021/08/02 04:05:24;;;;;;;6.80;4.73;;;19.50;99.90;;;19.97;61.56;100878.75;4949217;28;96930;-45
2021/08/02 04:07:50;;;;;;;6.53;5.40;;;19.60;99.90;;;19.96;61.87;100876.16;4950712;28;98110;-48
2021/08/02 04:10:16;;;;;;;7.00;5.60;;;19.50;99.90;;;19.94;61.96;100883.44;4947691;28;96979;-46
2021/08/02 04:12:42;;;;;;;7.73;4.87;;;19.50;99.90;;;19.92;62.27;100887.06;4962156;28;97212;-47
2021/08/02 04:15:11;;;;;;;8.80;5.37;;;19.50;99.90;;;19.86;62.00;100894.69;4946502;28;100085;-45
2021/08/02 04:17:37;;;;;;;7.50;4.73;;;19.50;99.90;;;19.80;62.23;100893.28;4950661;28;96902;-48
2021/08/02 04:20:08;;;;;;;8.27;5.00;;;19.50;99.90;;;19.78;62.93;100897.91;4948650;28;97140;-46
2021/08/02 04:22:34;;;;;;;9.77;5.07;;;19.40;99.90;;;19.75;63.37;100894.59;4936218;28;99554;-45
2021/08/02 04:25:00;;;;;;;8.80;4.67;;;19.30;99.90;;;19.74;63.40;100898.22;4956675;28;97351;-45
2021/08/02 04:27:26;;;;;;;7.80;4.90;;;19.30;99.90;;;19.71;62.76;100896.63;4950061;28;97396;-47
2021/08/02 04:29:51;;;;;;;7.87;4.50;;;19.30;99.90;;;19.68;62.80;100894.19;4952086;28;99988;-54
2021/08/02 04:32:17;;;;;;;8.90;5.40;;;19.30;99.90;;;19.71;63.17;100899.31;4949826;28;104412;-47
2021/08/02 04:34:43;;;;;;;10.47;5.17;;;19.30;99.90;;;19.74;62.24;100899.09;4958062;28;97130;-45
2021/08/02 04:37:09;;;;;;;8.40;5.10;;;19.30;99.90;;;19.76;62.14;100891.81;4959305;28;106748;-46
2021/08/02 04:39:35;;;;;;;10.17;5.10;;;19.30;99.90;;;19.81;62.22;100894.16;4949804;28;96731;-51
2021/08/02 04:42:00;;;;;;;12.13;5.07;;;19.40;99.90;;;19.80;62.25;100898.66;4945551;28;99738;-45
2021/08/02 04:44:26;;;;;;;7.93;4.80;;;19.40;99.90;;;19.78;62.54;100905.94;4945898;28;98228;-46
2021/08/02 04:46:54;;;;;;;10.40;5.27;;;19.40;99.90;;;19.80;62.39;100893.28;4933651;28;97456;-51
2021/08/02 04:49:19;;;;;;;7.63;5.33;;;19.40;99.90;;;19.83;62.53;100893.09;4955461;28;98418;-45
2021/08/02 04:51:46;;;;;;;7.03;4.43;;;19.40;99.90;;;19.85;61.79;100899.19;4934820;28;114838;-44
2021/08/02 04:54:12;;;;;;;6.90;3.90;;;19.40;99.90;;;19.84;61.68;100900.16;4960165;28;97248;-46
2021/08/02 04:56:38;;;;;;;9.03;4.80;;;19.40;99.90;;;19.81;61.16;100895.00;4950177;28;97632;-45
2021/08/02 04:59:04;;;;;;;8.87;4.20;;;19.40;99.90;;;19.82;61.84;100896.75;4946228;28;97559;-48
2021/08/02 05:01:29;;;;;;;8.33;3.77;;;19.40;99.90;;;19.86;61.29;100897.38;4947826;28;97598;-45
2021/08/02 05:03:55;;;;;;;6.77;3.60;;;19.40;99.90;;;19.83;61.37;100906.47;4946626;28;97351;-44
2021/08/02 05:06:21;;;;;;;7.40;3.50;;;19.40;99.90;;;19.81;61.69;100902.19;4955912;28;100527;-44
2021/08/02 05:08:47;;;;;;;8.60;4.03;;;19.40;99.90;;;19.77;62.34;100906.91;4949464;28;96933;-45
2021/08/02 05:11:13;;;;;;;10.10;4.50;;;19.40;99.90;;;19.75;62.04;100905.28;4938871;28;98749;-44
2021/08/02 05:13:38;;;;;;;7.47;4.13;;;19.30;99.90;;;19.83;61.34;100909.16;4947015;28;98115;-45
2021/08/02 05:16:06;;;;;;;7.37;4.07;;;19.40;99.90;;;19.83;61.23;100908.31;4956332;28;97195;-46
2021/08/02 05:18:32;;;;;;;8.67;3.80;;;19.40;99.90;;;19.86;60.98;100908.94;4946410;28;97558;-45
2021/08/02 05:20:58;;;;;;;7.23;3.77;;;19.40;99.90;;;19.85;61.36;100909.91;4942035;28;97472;-45
2021/08/02 05:23:24;;;;;;;7.70;3.67;;;19.50;99.90;;;19.85;61.93;100907.22;4952458;28;99004;-48
2021/08/02 05:25:50;;;;;;;10.00;3.77;;;19.50;99.90;;;19.90;61.50;100902.41;4942002;28;97406;-45
2021/08/02 05:28:18;;;;;;;9.77;4.03;;;19.50;99.90;;;19.97;61.45;100889.44;4941763;28;97427;-44
2021/08/02 05:30:46;;;;;;;6.60;3.80;;;19.50;99.90;;;20.05;61.74;100894.25;4960122;28;100056;-45
2021/08/02 05:33:13;;;;;;;7.60;4.03;;;19.50;99.90;;;20.13;61.27;100899.91;4940076;28;99864;-44
2021/08/02 05:35:39;;;;;;;6.27;3.50;;;19.70;99.90;;;20.20;60.83;100909.22;4962260;28;97609;-45
2021/08/02 05:38:04;;;;;;;7.97;3.90;;;19.70;99.90;;;20.15;60.18;100911.38;4944431;28;97493;-44
2021/08/02 05:40:30;;;;;;;7.67;4.10;;;19.70;99.90;;;20.13;59.82;100910.63;4965129;28;99730;-45
2021/08/02 05:42:56;;;;;;;8.80;4.43;;;19.70;99.90;;;20.15;60.10;100914.06;4942234;28;99962;-44
2021/08/02 05:45:22;;;;;;;8.90;4.10;;;19.70;99.90;;;20.16;60.40;100910.41;4963819;28;97367;-46
2021/08/02 05:47:48;;;;;;;8.90;4.00;;;19.70;99.90;;;20.17;60.57;100914.78;4963078;28;97138;-49
2021/08/02 05:50:14;;;;;;;7.80;3.67;;;19.70;99.90;;;20.16;59.63;100910.41;4937257;28;98384;-46
2021/08/02 05:52:41;;;;;;;6.37;3.60;;;19.70;99.90;;;20.13;59.73;100916.00;4948601;28;97275;-45
2021/08/02 05:55:09;;;;;;;5.27;3.53;;;19.70;99.90;;;20.09;60.15;100917.16;4961604;28;98609;-45
2021/08/02 05:57:35;;;;;;;8.03;4.20;;;19.70;99.90;;;20.08;59.73;100924.31;4945051;28;97467;-45
2021/08/02 06:00:01;;;;;;;8.37;3.70;;;19.70;99.90;;;20.06;59.17;100925.41;4961898;28;97752;-44
2021/08/02 06:02:26;;;;;;;8.77;4.10;;;19.70;99.90;;;19.99;59.82;100929.50;4960373;28;97401;-46
2021/08/02 06:04:52;;;;;;;8.87;4.27;;;19.60;99.90;;;19.97;59.46;100932.28;4945940;28;107924;-48
2021/08/02 06:07:19;;;;;;;9.77;4.10;;;19.60;99.90;;;19.99;59.43;100934.84;4940520;28;96980;-44
2021/08/02 06:09:47;;;;;;;6.20;3.80;;;19.60;99.90;;;19.98;60.89;100933.13;4959218;28;97262;-46
2021/08/02 06:12:12;;;;;;;9.47;4.13;;;19.60;99.90;;;19.95;61.06;100933.34;4948781;28;99788;-45
2021/08/02 06:14:38;;;;;;;11.93;4.00;;;19.60;99.90;;;19.90;61.16;100929.16;4917247;28;113322;-46
2021/08/02 06:17:04;;;;;;;8.33;4.00;;;19.50;99.90;;;20.16;61.31;100938.03;4954513;28;98276;-46
2021/08/02 06:19:31;;;;;;;8.77;3.87;;;19.70;99.90;;;20.29;61.18;100932.66;4948600;28;97766;-49
2021/08/02 06:21:56;;;;;;;9.87;4.37;;;19.80;99.90;;;20.43;60.86;100940.59;4935317;28;99710;-44
2021/08/02 06:24:22;;;;;;;12.77;4.40;;;20.00;99.90;;;20.58;60.44;100943.13;4955628;28;97833;-45
2021/08/02 06:26:48;;;;;;;7.87;4.17;;;20.10;99.90;;;20.70;60.11;100937.72;4928960;28;98326;-45
2021/08/02 06:29:14;;;;;;;6.97;3.83;;;20.20;99.90;;;20.83;59.82;100943.06;4922638;28;99351;-46
2021/08/02 06:31:40;;;;;;;9.57;3.87;;;20.40;99.90;;;20.91;59.30;100947.81;4913190;28;98497;-45
2021/08/02 06:34:06;;;;;;;12.00;3.93;;;20.50;99.90;;;20.97;57.23;100950.91;4922130;28;97478;-46
2021/08/02 06:36:32;;;;;;;8.27;3.50;;;20.50;99.90;;;20.96;58.48;100951.88;4942452;28;100155;-46
2021/08/02 06:38:57;;;;;;;8.70;3.87;;;20.50;99.90;;;21.05;58.93;100959.25;4933742;28;98431;-46
2021/08/02 06:41:23;;;;;;;11.10;3.80;;;20.60;99.90;;;21.13;58.63;100957.81;4910318;28;100851;-45
2021/08/02 06:43:49;;;;;;;12.47;4.00;;;20.60;99.90;;;21.18;58.60;100952.97;4934982;28;98347;-44
2021/08/02 06:46:15;;;;;;;8.17;3.40;;;20.70;99.90;;;21.24;58.51;100949.81;4939184;28;97952;-45
2021/08/02 06:48:41;;;;;;;3.30;2.13;;;20.70;99.90;;;21.30;58.36;100952.06;4926048;28;99975;-45
2021/08/02 06:51:08;;;;;;;3.03;2.10;;;20.80;99.90;;;21.41;58.03;100960.16;4916323;28;98292;-44
2021/08/02 06:53:34;;;;;;;3.87;1.83;;;21.00;99.90;;;21.52;57.75;100957.50;4925836;28;97780;-47
2021/08/02 06:56:01;;;;;;;5.70;2.37;;;21.20;99.90;;;21.60;57.35;100965.81;4936533;28;97530;-46
2021/08/02 06:58:26;;;;;;;3.57;2.00;;;21.30;99.90;;;21.63;57.22;100954.84;4920118;28;98300;-45
2021/08/02 07:00:52;;;;;;;6.93;3.17;;;21.30;99.90;;;21.69;57.03;100965.09;4920354;28;105967;-50
2021/08/02 07:03:18;;;;;;;7.40;3.17;;;21.30;99.90;;;21.73;57.00;100968.44;4942019;28;98801;-45
2021/08/02 07:05:44;;;;;;;5.23;2.30;;;21.30;99.90;;;21.74;56.94;100967.44;4902261;28;1220253;-48
2021/08/02 07:08:10;;;;;;;4.93;2.20;;;21.30;99.90;;;21.76;56.92;100964.63;4923727;28;99133;-45
2021/08/02 07:10:35;;;;;;;6.53;2.80;;;21.30;99.90;;;21.77;56.76;100972.56;4929645;28;98986;-45
2021/08/02 07:13:01;;;;;;;3.67;1.97;;;21.40;99.90;;;21.79;56.89;100972.44;4927854;28;98510;-45
2021/08/02 07:15:27;;;;;;;10.33;3.57;;;21.40;99.90;;;21.79;56.34;100969.75;4921818;28;97484;-44
2021/08/02 07:17:53;;;;;;;2.83;1.90;;;21.30;99.90;;;21.78;56.88;100973.44;4928711;28;98989;-45
2021/08/02 07:20:19;;;;;;;8.70;3.47;;;21.30;99.90;;;21.78;56.66;100973.44;4925503;28;120274;-45
2021/08/02 07:22:45;;;;;;;7.57;3.60;;;21.30;99.90;;;21.76;56.63;100975.38;4930072;28;99456;-44
2021/08/02 07:25:11;;;;;;;7.87;3.57;;;21.30;99.90;;;21.73;56.78;100972.94;4923735;28;100229;-45
2021/08/02 07:27:38;;;;;;;10.13;4.17;;;21.30;99.90;;;21.70;56.47;100976.72;4940768;28;101424;-45
2021/08/02 07:30:09;;;;;;;5.13;2.90;;;21.20;99.90;;;21.68;56.90;100979.50;4934738;28;99113;-45
2021/08/02 07:32:36;;;;;;;4.40;2.23;;;21.20;99.90;;;21.66;57.06;100975.22;4941822;28;98292;-44
2021/08/02 07:35:02;;;;;;;3.90;2.90;;;21.20;99.90;;;21.68;57.18;100973.28;4924702;28;97401;-44
2021/08/02 07:37:28;;;;;;;7.50;2.93;;;21.20;99.90;;;21.68;57.07;100978.63;4926519;28;98406;-45
2021/08/02 07:39:54;;;;;;;6.93;2.77;;;21.20;99.90;;;21.67;57.14;100972.41;4926055;28;101214;-53
2021/08/02 07:42:19;;;;;;;5.87;3.40;;;21.20;99.90;;;21.68;56.96;100974.13;4927503;28;99041;-44
2021/08/02 07:44:45;;;;;;;8.57;3.50;;;21.20;99.90;;;21.69;56.65;100975.84;4945477;28;98324;-44
2021/08/02 07:47:11;;;;;;;6.30;3.63;;;21.20;99.90;;;21.69;56.72;100981.19;4938585;28;97796;-45
2021/08/02 07:49:37;;;;;;;4.63;2.70;;;21.30;99.90;;;21.67;56.82;100976.94;4928327;28;98852;-44
2021/08/02 07:52:03;;;;;;;2.20;2.00;;;21.20;99.90;;;21.75;56.95;100982.56;4935791;28;101254;-43
2021/08/02 07:54:29;;;;;;;4.07;2.40;;;21.40;99.90;;;21.75;56.59;100979.91;4930239;28;98514;-44
2021/08/02 07:56:55;;;;;;;2.47;2.00;;;21.40;99.90;;;21.79;56.74;100983.19;4939807;28;98191;-44
2021/08/02 07:59:21;;;;;;;9.10;3.03;;;21.40;99.90;;;21.77;56.40;100983.31;4943411;28;105742;-45
2021/08/02 08:01:47;;;;;;;2.97;2.10;;;21.40;99.90;;;21.76;56.67;100980.75;4928357;28;97518;-46
2021/08/02 08:04:12;;;;;;;2.60;1.70;;;21.40;99.90;;;21.83;56.55;100976.59;4920662;28;102933;-44
2021/08/02 08:06:38;;;;;;;3.37;1.87;;;21.50;99.90;;;21.86;56.56;100976.38;4922698;28;99960;-44
2021/08/02 08:09:04;;;;;;;5.97;1.83;;;21.50;99.90;;;21.88;56.47;100985.19;4941098;28;98249;-45
2021/08/02 08:11:30;;;;;;;3.33;2.33;;;21.60;99.90;;;21.90;56.44;100972.47;4937928;28;98653;-45
2021/08/02 08:13:55;;;;;;;6.93;2.73;;;21.60;99.90;;;21.89;55.78;100976.13;4933544;28;98092;-44
2021/08/02 08:16:21;;;;;;;4.90;2.57;;;21.50;99.90;;;21.86;56.32;100979.94;4938271;28;97742;-45
2021/08/02 08:18:47;;;;;;;5.30;2.60;;;21.50;99.90;;;21.91;56.07;100979.56;4927416;28;99340;-44
2021/08/02 08:21:13;;;;;;;3.17;2.00;;;21.50;99.90;;;21.89;56.40;100976.13;4923230;28;101825;-44
2021/08/02 08:23:39;;;;;;;2.00;1.60;;;21.50;99.90;;;21.98;56.22;100980.78;4925414;28;97501;-45
2021/08/02 08:26:04;;;;;;;2.33;1.70;;;21.70;99.90;;;22.07;55.88;100973.88;4938992;28;99527;-43
2021/08/02 08:28:30;;;;;;;1.50;1.40;;;21.80;99.90;;;22.13;55.90;100982.31;4921330;28;100525;-43
2021/08/02 08:30:56;;;;;;;6.03;2.40;;;21.90;99.90;;;22.18;55.40;100984.63;4919406;28;99455;-43
2021/08/02 08:33:26;;;;;;;2.30;1.60;;;22.00;99.90;;;22.23;55.50;100985.97;4929620;28;97980;-43
2021/08/02 08:35:54;;;;;;;2.43;1.70;;;22.00;99.90;;;22.26;55.34;100985.72;4926666;28;98595;-44
2021/08/02 08:38:20;;;;;;;4.47;2.47;;;22.10;99.90;;;22.20;55.27;100988.91;4906552;28;103826;-45
2021/08/02 08:40:48;;;;;;;1.63;1.50;;;22.00;99.90;;;22.21;55.52;100987.06;4923079;28;97234;-45
2021/08/02 08:43:19;;;;;;;2.33;1.53;;;22.00;99.90;;;22.21;55.57;100987.91;4926605;28;99273;-43
2021/08/02 08:45:47;;;;;;;9.20;3.67;;;21.90;99.90;;;22.13;52.50;100990.38;4922556;28;97663;-45
2021/08/02 08:48:13;;;;;;;4.53;2.53;;;21.90;99.90;;;22.09;55.65;100988.88;4924183;28;97346;-45
2021/08/02 08:50:41;;;;;;;9.67;3.93;;;21.70;99.90;;;21.92;53.06;100998.22;4923067;28;98892;-44
2021/08/02 08:53:11;;;;;;;10.63;3.70;;;21.50;99.90;;;21.92;55.92;100997.38;4925298;28;97800;-43
2021/08/02 08:55:42;;;;;;;4.90;2.57;;;21.50;99.90;;;21.87;56.30;100999.56;4924638;28;100453;-43
2021/08/02 08:58:08;;;;;;;8.63;3.10;;;21.40;99.90;;;21.84;55.23;101002.47;4919561;28;99553;-45
2021/08/02 09:00:35;;;;;;;3.93;2.10;;;21.40;99.90;;;21.82;56.54;101002.59;4923677;28;98897;-44
2021/08/02 09:03:11;;;;;;;7.13;3.27;;;21.40;99.90;;;21.81;55.94;101000.03;4925211;28;97016;-46
2021/08/02 09:05:37;;;;;;;8.83;4.07;;;21.40;99.90;;;21.76;55.91;101012.97;4938809;28;98308;-45
2021/08/02 09:08:04;;;;;;;3.20;2.77;;;21.30;99.90;;;21.76;56.70;101002.22;4926356;28;99256;-44
2021/08/02 09:10:31;;;;;;;8.17;4.13;;;21.30;99.90;;;21.68;55.13;101005.47;4929057;28;98025;-45
2021/08/02 09:13:04;;;;;;;4.20;2.33;;;21.20;99.90;;;21.69;56.87;101002.69;4919657;28;99312;-43
2021/08/02 09:15:44;;;;;;;9.17;3.57;;;21.20;99.90;;;21.68;56.32;101006.34;4926550;28;99466;-44
2021/08/02 09:18:22;;;;;;;3.97;2.07;;;21.20;99.90;;;21.66;57.10;101002.91;4941315;28;99029;-45
2021/08/02 09:21:06;;;;;;;6.33;3.50;;;21.20;99.90;;;21.67;56.88;101006.47;4925511;28;96700;-44
2021/08/02 09:23:33;;;;;;;2.93;2.07;;;21.20;99.90;;;21.64;57.04;101007.56;4927691;28;99785;-44
2021/08/02 09:26:01;;;;;;;6.73;2.67;;;21.20;99.90;;;21.67;57.09;101009.16;4922808;28;97757;-44
2021/08/02 09:28:29;;;;;;;3.50;1.97;;;21.20;99.90;;;21.68;57.08;101006.34;4929098;28;99128;-44
2021/08/02 09:31:03;;;;;;;4.20;1.87;;;21.20;99.90;;;21.77;56.87;101006.63;4936899;28;97703;-45
2021/08/02 09:33:49;;;;;;;8.50;3.77;;;21.40;99.90;;;21.79;55.62;101010.03;4944164;28;99454;-44
2021/08/02 09:36:16;;;;;;;7.83;3.80;;;21.50;99.90;;;21.78;55.46;101013.69;4941449;28;97164;-44
2021/08/02 09:38:43;;;;;;;3.57;2.00;;;21.50;99.90;;;21.80;56.64;101006.38;4928617;28;98477;-44
2021/08/02 09:41:20;;;;;;;2.60;2.00;;;21.50;99.90;;;21.89;56.60;101011.06;4925887;28;103044;-44
2021/08/02 09:43:52;;;;;;;4.83;2.47;;;21.60;99.90;;;21.89;55.89;100997.63;4927978;28;98460;-45
2021/08/02 09:46:17;;;;;;;5.80;2.63;;;21.60;99.90;;;21.84;56.05;101006.00;4905253;28;99953;-44
2021/08/02 09:48:46;;;;;;;2.63;2.13;;;21.50;99.90;;;21.88;56.17;101012.03;4904169;28;97235;-44
2021/08/02 09:51:16;;;;;;;2.13;1.60;;;21.50;99.90;;;21.93;56.29;101007.13;4923715;28;97149;-45
2021/08/02 09:53:54;;;;;;;5.97;3.00;;;21.60;99.90;;;22.01;54.51;100996.66;4926629;28;97390;-45
2021/08/02 09:56:25;;;;;;;1.73;1.63;;;21.80;99.90;;;22.07;55.90;101006.09;4925363;28;103894;-44
2021/08/02 09:58:51;;;;;;;6.47;3.00;;;21.90;99.90;;;22.02;51.32;101001.06;4923438;28;99107;-44
2021/08/02 10:01:19;;;;;;;5.17;3.30;;;21.90;99.90;;;22.04;54.90;101009.84;4908200;28;99265;-44
2021/08/02 10:03:47;;;;;;;3.07;1.97;;;21.80;99.90;;;22.02;55.55;101006.44;4912892;28;97398;-44
2021/08/02 10:06:14;;;;;;;14.77;3.07;;;21.70;99.90;;;21.97;50.99;100995.19;4928079;28;98034;-46
2021/08/02 10:08:41;;;;;;;2.57;1.80;;;21.70;99.90;;;21.98;55.82;100999.56;4933068;28;98786;-44
2021/08/02 10:11:09;;;;;;;5.17;2.33;;;21.70;99.90;;;21.99;53.75;100990.56;4959495;28;97342;-46
2021/08/02 10:13:42;;;;;;;5.07;2.20;;;21.70;99.90;;;22.03;55.52;100999.25;4945523;28;97109;-44
2021/08/02 10:16:16;;;;;;;5.47;1.97;;;21.70;99.90;;;21.94;53.82;101006.16;4945947;28;97862;-45
2021/08/02 10:18:52;;;;;;;5.07;2.67;;;21.60;99.90;;;21.93;49.33;101004.47;4942087;28;97544;-44